sensor_id;sensor_type;location;lat;lon;timestamp;P1;durP1;ratioP1;P2;durP2;ratioP2
23539;SDS011;11947;50.810;4.394;2022-10-16T00:00:02;3.65;;;1.38;;
23539;SDS011;11947;50.810;4.394;2022-10-16T00:02:28;5.07;;;1.40;;
23539;SDS011;11947;50.810;4.394;2022-10-16T00:04:54;6.65;;;1.42;;
23539;SDS011;11947;50.810;4.394;2022-10-16T00:07:19;3.47;;;1.20;;
23539;SDS011;11947;50.810;4.394;2022-10-16T00:09:45;4.70;;;1.45;;
23539;SDS011;11947;50.810;4.394;2022-10-16T00:12:11;1.45;;;1.10;;
23539;SDS011;11947;50.810;4.394;2022-10-16T00:14:36;5.15;;;1.30;;
23539;SDS011;11947;50.810;4.394;2022-10-16T00:17:02;2.70;;;1.40;;
23539;SDS011;11947;50.810;4.394;2022-10-16T00:19:28;4.43;;;1.55;;
23539;SDS011;11947;50.810;4.394;2022-10-16T00:21:53;4.60;;;1.38;;
23539;SDS011;11947;50.810;4.394;2022-10-16T00:24:19;3.65;;;1.20;;
23539;SDS011;11947;50.810;4.394;2022-10-16T00:26:45;2.70;;;1.45;;
23539;SDS011;11947;50.810;4.394;2022-10-16T00:29:14;2.08;;;1.10;;
23539;SDS011;11947;50.810;4.394;2022-10-16T00:31:39;4.82;;;1.30;;
23539;SDS011;11947;50.810;4.394;2022-10-16T00:34:05;5.20;;;1.80;;
23539;SDS011;11947;50.810;4.394;2022-10-16T00:36:30;6.30;;;1.90;;
23539;SDS011;11947;50.810;4.394;2022-10-16T00:38:57;3.53;;;1.70;;
23539;SDS011;11947;50.810;4.394;2022-10-16T00:41:25;6.88;;;1.50;;
23539;SDS011;11947;50.810;4.394;2022-10-16T00:43:53;4.88;;;1.58;;
23539;SDS011;11947;50.810;4.394;2022-10-16T00:46:40;4.03;;;1.40;;
23539;SDS011;11947;50.810;4.394;2022-10-16T00:49:17;4.63;;;1.50;;
23539;SDS011;11947;50.810;4.394;2022-10-16T00:51:45;3.05;;;1.30;;
23539;SDS011;11947;50.810;4.394;2022-10-16T00:54:15;4.20;;;1.73;;
23539;SDS011;11947;50.810;4.394;2022-10-16T00:56:44;4.50;;;1.50;;
23539;SDS011;11947;50.810;4.394;2022-10-16T00:59:18;3.38;;;1.83;;
23539;SDS011;11947;50.810;4.394;2022-10-16T01:01:49;5.18;;;1.58;;
23539;SDS011;11947;50.810;4.394;2022-10-16T01:04:15;5.28;;;1.80;;
23539;SDS011;11947;50.810;4.394;2022-10-16T01:10:14;4.55;;;2.22;;
23539;SDS011;11947;50.810;4.394;2022-10-16T01:12:45;5.38;;;1.85;;
23539;SDS011;11947;50.810;4.394;2022-10-16T01:20:47;4.38;;;1.38;;
23539;SDS011;11947;50.810;4.394;2022-10-16T01:28:51;4.38;;;1.60;;
23539;SDS011;11947;50.810;4.394;2022-10-16T01:31:24;5.40;;;1.65;;
23539;SDS011;11947;50.810;4.394;2022-10-16T01:33:59;10.00;;;1.92;;
23539;SDS011;11947;50.810;4.394;2022-10-16T01:36:35;3.70;;;1.92;;
23539;SDS011;11947;50.810;4.394;2022-10-16T01:39:04;4.70;;;1.58;;
23539;SDS011;11947;50.810;4.394;2022-10-16T01:41:34;3.90;;;1.80;;
23539;SDS011;11947;50.810;4.394;2022-10-16T01:44:11;5.35;;;1.70;;
23539;SDS011;11947;50.810;4.394;2022-10-16T01:46:44;6.03;;;1.70;;
23539;SDS011;11947;50.810;4.394;2022-10-16T01:49:13;4.80;;;1.90;;
23539;SDS011;11947;50.810;4.394;2022-10-16T01:51:41;7.00;;;1.60;;
23539;SDS011;11947;50.810;4.394;2022-10-16T01:54:10;5.32;;;1.60;;
23539;SDS011;11947;50.810;4.394;2022-10-16T01:56:38;3.72;;;1.70;;
23539;SDS011;11947;50.810;4.394;2022-10-16T01:59:06;3.65;;;1.73;;
23539;SDS011;11947;50.810;4.394;2022-10-16T02:01:35;4.53;;;1.95;;
23539;SDS011;11947;50.810;4.394;2022-10-16T02:04:27;6.03;;;1.90;;
23539;SDS011;11947;50.810;4.394;2022-10-16T02:06:59;5.68;;;1.88;;
23539;SDS011;11947;50.810;4.394;2022-10-16T02:09:25;6.97;;;2.30;;
23539;SDS011;11947;50.810;4.394;2022-10-16T02:11:52;4.68;;;1.80;;
23539;SDS011;11947;50.810;4.394;2022-10-16T02:14:20;4.53;;;1.85;;
23539;SDS011;11947;50.810;4.394;2022-10-16T02:16:49;4.90;;;2.10;;
23539;SDS011;11947;50.810;4.394;2022-10-16T02:19:15;5.45;;;1.92;;
23539;SDS011;11947;50.810;4.394;2022-10-16T02:21:54;3.92;;;1.95;;
23539;SDS011;11947;50.810;4.394;2022-10-16T02:29:31;5.13;;;2.00;;
23539;SDS011;11947;50.810;4.394;2022-10-16T02:32:03;5.38;;;2.10;;
23539;SDS011;11947;50.810;4.394;2022-10-16T02:34:31;4.28;;;2.20;;
23539;SDS011;11947;50.810;4.394;2022-10-16T02:36:58;5.47;;;1.90;;
23539;SDS011;11947;50.810;4.394;2022-10-16T02:39:27;5.18;;;2.17;;
23539;SDS011;11947;50.810;4.394;2022-10-16T02:41:54;8.07;;;2.40;;
23539;SDS011;11947;50.810;4.394;2022-10-16T02:44:20;5.03;;;2.50;;
23539;SDS011;11947;50.810;4.394;2022-10-16T02:46:45;9.80;;;2.53;;
23539;SDS011;11947;50.810;4.394;2022-10-16T02:49:11;4.25;;;2.33;;
23539;SDS011;11947;50.810;4.394;2022-10-16T02:51:37;5.15;;;2.65;;
23539;SDS011;11947;50.810;4.394;2022-10-16T02:54:03;13.32;;;2.80;;
23539;SDS011;11947;50.810;4.394;2022-10-16T02:56:28;5.35;;;2.38;;
23539;SDS011;11947;50.810;4.394;2022-10-16T02:58:55;3.30;;;2.30;;
23539;SDS011;11947;50.810;4.394;2022-10-16T03:01:21;4.95;;;2.47;;
23539;SDS011;11947;50.810;4.394;2022-10-16T03:03:46;3.30;;;2.28;;
23539;SDS011;11947;50.810;4.394;2022-10-16T03:06:12;5.85;;;2.25;;
23539;SDS011;11947;50.810;4.394;2022-10-16T03:08:38;4.78;;;2.20;;
23539;SDS011;11947;50.810;4.394;2022-10-16T03:11:03;5.88;;;2.10;;
23539;SDS011;11947;50.810;4.394;2022-10-16T03:13:29;3.22;;;2.35;;
23539;SDS011;11947;50.810;4.394;2022-10-16T03:15:54;4.38;;;2.42;;
23539;SDS011;11947;50.810;4.394;2022-10-16T03:18:20;5.40;;;2.78;;
23539;SDS011;11947;50.810;4.394;2022-10-16T03:20:46;7.13;;;2.35;;
23539;SDS011;11947;50.810;4.394;2022-10-16T03:23:11;5.65;;;2.33;;
23539;SDS011;11947;50.810;4.394;2022-10-16T03:25:37;5.82;;;2.50;;
23539;SDS011;11947;50.810;4.394;2022-10-16T03:28:03;4.22;;;2.42;;
23539;SDS011;11947;50.810;4.394;2022-10-16T03:30:29;3.75;;;2.30;;
23539;SDS011;11947;50.810;4.394;2022-10-16T03:32:54;3.75;;;1.90;;
23539;SDS011;11947;50.810;4.394;2022-10-16T03:35:21;5.43;;;2.50;;
23539;SDS011;11947;50.810;4.394;2022-10-16T03:37:47;8.05;;;2.40;;
23539;SDS011;11947;50.810;4.394;2022-10-16T03:40:13;6.28;;;2.35;;
23539;SDS011;11947;50.810;4.394;2022-10-16T03:42:39;13.48;;;2.55;;
23539;SDS011;11947;50.810;4.394;2022-10-16T03:45:05;7.78;;;2.40;;
23539;SDS011;11947;50.810;4.394;2022-10-16T03:47:31;6.82;;;2.40;;
23539;SDS011;11947;50.810;4.394;2022-10-16T03:50:01;6.10;;;2.30;;
23539;SDS011;11947;50.810;4.394;2022-10-16T03:52:27;6.20;;;2.45;;
23539;SDS011;11947;50.810;4.394;2022-10-16T03:54:52;9.57;;;2.65;;
23539;SDS011;11947;50.810;4.394;2022-10-16T03:57:18;7.80;;;2.58;;
23539;SDS011;11947;50.810;4.394;2022-10-16T03:59:45;3.65;;;2.60;;
23539;SDS011;11947;50.810;4.394;2022-10-16T04:02:11;5.30;;;2.45;;
23539;SDS011;11947;50.810;4.394;2022-10-16T04:04:36;5.43;;;2.60;;
23539;SDS011;11947;50.810;4.394;2022-10-16T04:07:02;7.90;;;2.42;;
23539;SDS011;11947;50.810;4.394;2022-10-16T04:09:27;5.38;;;2.50;;
23539;SDS011;11947;50.810;4.394;2022-10-16T04:11:53;9.68;;;2.95;;
23539;SDS011;11947;50.810;4.394;2022-10-16T04:14:19;4.85;;;2.50;;
23539;SDS011;11947;50.810;4.394;2022-10-16T04:16:44;6.00;;;2.65;;
23539;SDS011;11947;50.810;4.394;2022-10-16T04:19:10;7.10;;;2.70;;
23539;SDS011;11947;50.810;4.394;2022-10-16T04:21:36;5.13;;;2.40;;
23539;SDS011;11947;50.810;4.394;2022-10-16T04:24:02;14.35;;;3.20;;
23539;SDS011;11947;50.810;4.394;2022-10-16T04:26:28;7.80;;;2.60;;
23539;SDS011;11947;50.810;4.394;2022-10-16T04:28:53;3.78;;;2.50;;
23539;SDS011;11947;50.810;4.394;2022-10-16T04:31:19;6.88;;;2.78;;
23539;SDS011;11947;50.810;4.394;2022-10-16T04:33:45;6.75;;;2.50;;
23539;SDS011;11947;50.810;4.394;2022-10-16T04:36:11;5.28;;;2.28;;
23539;SDS011;11947;50.810;4.394;2022-10-16T04:38:37;4.03;;;2.20;;
23539;SDS011;11947;50.810;4.394;2022-10-16T04:41:04;7.53;;;2.33;;
23539;SDS011;11947;50.810;4.394;2022-10-16T04:43:30;6.10;;;2.58;;
23539;SDS011;11947;50.810;4.394;2022-10-16T04:45:56;6.88;;;2.40;;
23539;SDS011;11947;50.810;4.394;2022-10-16T04:48:22;7.93;;;2.40;;
23539;SDS011;11947;50.810;4.394;2022-10-16T04:50:47;6.88;;;3.28;;
23539;SDS011;11947;50.810;4.394;2022-10-16T04:53:13;7.40;;;2.58;;
23539;SDS011;11947;50.810;4.394;2022-10-16T04:55:39;11.73;;;2.70;;
23539;SDS011;11947;50.810;4.394;2022-10-16T04:58:06;7.22;;;2.83;;
23539;SDS011;11947;50.810;4.394;2022-10-16T05:00:32;6.82;;;2.45;;
23539;SDS011;11947;50.810;4.394;2022-10-16T05:02:58;6.70;;;2.50;;
23539;SDS011;11947;50.810;4.394;2022-10-16T05:05:25;5.88;;;2.80;;
23539;SDS011;11947;50.810;4.394;2022-10-16T05:07:51;5.13;;;2.90;;
23539;SDS011;11947;50.810;4.394;2022-10-16T05:10:17;7.20;;;2.72;;
23539;SDS011;11947;50.810;4.394;2022-10-16T05:12:43;9.40;;;3.00;;
23539;SDS011;11947;50.810;4.394;2022-10-16T05:15:09;10.45;;;2.92;;
23539;SDS011;11947;50.810;4.394;2022-10-16T05:17:34;6.63;;;2.95;;
23539;SDS011;11947;50.810;4.394;2022-10-16T05:20:00;5.35;;;2.72;;
23539;SDS011;11947;50.810;4.394;2022-10-16T05:22:25;6.60;;;2.47;;
23539;SDS011;11947;50.810;4.394;2022-10-16T05:24:51;4.13;;;2.65;;
23539;SDS011;11947;50.810;4.394;2022-10-16T05:27:17;6.30;;;2.63;;
23539;SDS011;11947;50.810;4.394;2022-10-16T05:29:45;9.50;;;2.90;;
23539;SDS011;11947;50.810;4.394;2022-10-16T05:32:12;5.35;;;2.53;;
23539;SDS011;11947;50.810;4.394;2022-10-16T05:34:39;5.53;;;2.83;;
23539;SDS011;11947;50.810;4.394;2022-10-16T05:37:04;6.95;;;3.25;;
23539;SDS011;11947;50.810;4.394;2022-10-16T05:39:30;8.05;;;3.10;;
23539;SDS011;11947;50.810;4.394;2022-10-16T05:41:55;8.88;;;3.38;;
23539;SDS011;11947;50.810;4.394;2022-10-16T05:44:21;4.57;;;2.60;;
23539;SDS011;11947;50.810;4.394;2022-10-16T05:46:47;9.02;;;3.20;;
23539;SDS011;11947;50.810;4.394;2022-10-16T05:49:12;6.82;;;3.10;;
23539;SDS011;11947;50.810;4.394;2022-10-16T05:51:38;5.63;;;3.00;;
23539;SDS011;11947;50.810;4.394;2022-10-16T05:54:04;10.02;;;3.28;;
23539;SDS011;11947;50.810;4.394;2022-10-16T05:56:30;5.60;;;2.80;;
23539;SDS011;11947;50.810;4.394;2022-10-16T05:58:55;10.20;;;3.05;;
23539;SDS011;11947;50.810;4.394;2022-10-16T06:01:21;7.63;;;2.80;;
23539;SDS011;11947;50.810;4.394;2022-10-16T06:03:49;8.10;;;3.00;;
23539;SDS011;11947;50.810;4.394;2022-10-16T06:06:17;11.50;;;2.90;;
23539;SDS011;11947;50.810;4.394;2022-10-16T06:08:47;8.00;;;3.00;;
23539;SDS011;11947;50.810;4.394;2022-10-16T06:11:14;9.63;;;3.15;;
23539;SDS011;11947;50.810;4.394;2022-10-16T06:13:41;9.48;;;3.30;;
23539;SDS011;11947;50.810;4.394;2022-10-16T06:16:08;6.65;;;2.97;;
23539;SDS011;11947;50.810;4.394;2022-10-16T06:18:35;9.98;;;2.88;;
23539;SDS011;11947;50.810;4.394;2022-10-16T06:21:06;9.38;;;3.28;;
23539;SDS011;11947;50.810;4.394;2022-10-16T06:26:09;9.13;;;3.10;;
23539;SDS011;11947;50.810;4.394;2022-10-16T06:28:37;12.30;;;3.17;;
23539;SDS011;11947;50.810;4.394;2022-10-16T06:31:03;6.93;;;2.90;;
23539;SDS011;11947;50.810;4.394;2022-10-16T06:33:31;7.30;;;2.90;;
23539;SDS011;11947;50.810;4.394;2022-10-16T06:36:31;7.53;;;2.80;;
23539;SDS011;11947;50.810;4.394;2022-10-16T06:38:50;9.90;;;3.28;;
23539;SDS011;11947;50.810;4.394;2022-10-16T06:41:17;9.45;;;2.92;;
23539;SDS011;11947;50.810;4.394;2022-10-16T06:43:44;6.75;;;2.80;;
23539;SDS011;11947;50.810;4.394;2022-10-16T06:46:10;8.02;;;3.22;;
23539;SDS011;11947;50.810;4.394;2022-10-16T06:48:37;8.73;;;3.45;;
23539;SDS011;11947;50.810;4.394;2022-10-16T06:53:35;5.65;;;3.33;;
23539;SDS011;11947;50.810;4.394;2022-10-16T06:56:13;8.63;;;2.75;;
23539;SDS011;11947;50.810;4.394;2022-10-16T06:58:42;9.93;;;2.97;;
23539;SDS011;11947;50.810;4.394;2022-10-16T07:01:09;13.48;;;2.65;;
23539;SDS011;11947;50.810;4.394;2022-10-16T07:03:36;5.45;;;2.40;;
23539;SDS011;11947;50.810;4.394;2022-10-16T07:06:03;9.68;;;3.13;;
23539;SDS011;11947;50.810;4.394;2022-10-16T07:08:31;7.38;;;2.40;;
23539;SDS011;11947;50.810;4.394;2022-10-16T07:11:01;8.35;;;2.70;;
23539;SDS011;11947;50.810;4.394;2022-10-16T07:13:28;6.18;;;2.33;;
23539;SDS011;11947;50.810;4.394;2022-10-16T07:15:54;8.93;;;2.78;;
23539;SDS011;11947;50.810;4.394;2022-10-16T07:18:20;10.00;;;2.35;;
23539;SDS011;11947;50.810;4.394;2022-10-16T07:20:46;4.78;;;2.25;;
23539;SDS011;11947;50.810;4.394;2022-10-16T07:23:13;6.07;;;2.50;;
23539;SDS011;11947;50.810;4.394;2022-10-16T07:25:39;5.93;;;2.10;;
23539;SDS011;11947;50.810;4.394;2022-10-16T07:28:06;7.22;;;2.30;;
23539;SDS011;11947;50.810;4.394;2022-10-16T07:30:34;7.10;;;2.33;;
23539;SDS011;11947;50.810;4.394;2022-10-16T07:33:01;5.78;;;2.25;;
23539;SDS011;11947;50.810;4.394;2022-10-16T07:35:27;6.78;;;2.60;;
23539;SDS011;11947;50.810;4.394;2022-10-16T07:37:52;3.95;;;2.22;;
23539;SDS011;11947;50.810;4.394;2022-10-16T07:40:18;6.63;;;2.35;;
23539;SDS011;11947;50.810;4.394;2022-10-16T07:42:44;10.23;;;2.50;;
23539;SDS011;11947;50.810;4.394;2022-10-16T07:45:10;16.58;;;2.60;;
23539;SDS011;11947;50.810;4.394;2022-10-16T07:47:35;6.95;;;2.35;;
23539;SDS011;11947;50.810;4.394;2022-10-16T07:50:01;8.68;;;2.42;;
23539;SDS011;11947;50.810;4.394;2022-10-16T07:52:27;6.15;;;2.00;;
23539;SDS011;11947;50.810;4.394;2022-10-16T07:54:52;5.38;;;2.22;;
23539;SDS011;11947;50.810;4.394;2022-10-16T07:57:18;6.38;;;2.40;;
23539;SDS011;11947;50.810;4.394;2022-10-16T07:59:45;6.03;;;2.25;;
23539;SDS011;11947;50.810;4.394;2022-10-16T08:02:11;8.35;;;1.98;;
23539;SDS011;11947;50.810;4.394;2022-10-16T08:04:37;5.97;;;1.85;;
23539;SDS011;11947;50.810;4.394;2022-10-16T08:07:02;3.60;;;2.00;;
23539;SDS011;11947;50.810;4.394;2022-10-16T08:09:28;7.13;;;2.30;;
23539;SDS011;11947;50.810;4.394;2022-10-16T08:11:53;7.68;;;2.20;;
23539;SDS011;11947;50.810;4.394;2022-10-16T08:14:19;7.90;;;2.10;;
23539;SDS011;11947;50.810;4.394;2022-10-16T08:16:44;6.30;;;2.20;;
23539;SDS011;11947;50.810;4.394;2022-10-16T08:19:10;5.15;;;2.10;;
23539;SDS011;11947;50.810;4.394;2022-10-16T08:21:36;5.65;;;2.17;;
23539;SDS011;11947;50.810;4.394;2022-10-16T08:24:01;8.18;;;2.25;;
23539;SDS011;11947;50.810;4.394;2022-10-16T08:26:27;14.55;;;2.53;;
23539;SDS011;11947;50.810;4.394;2022-10-16T08:28:53;6.88;;;2.22;;
23539;SDS011;11947;50.810;4.394;2022-10-16T08:31:20;7.28;;;2.22;;
23539;SDS011;11947;50.810;4.394;2022-10-16T08:33:46;10.57;;;2.38;;
23539;SDS011;11947;50.810;4.394;2022-10-16T08:36:12;9.63;;;2.30;;
23539;SDS011;11947;50.810;4.394;2022-10-16T08:38:39;9.00;;;2.00;;
23539;SDS011;11947;50.810;4.394;2022-10-16T08:46:50;6.28;;;2.10;;
23539;SDS011;11947;50.810;4.394;2022-10-16T08:49:25;8.43;;;1.73;;
23539;SDS011;11947;50.810;4.394;2022-10-16T08:51:52;6.25;;;1.92;;
23539;SDS011;11947;50.810;4.394;2022-10-16T08:54:28;6.70;;;2.03;;
23539;SDS011;11947;50.810;4.394;2022-10-16T08:57:01;5.18;;;1.63;;
23539;SDS011;11947;50.810;4.394;2022-10-16T08:59:41;5.13;;;1.70;;
23539;SDS011;11947;50.810;4.394;2022-10-16T09:07:56;8.60;;;1.85;;
23539;SDS011;11947;50.810;4.394;2022-10-16T09:10:59;8.73;;;1.80;;
23539;SDS011;11947;50.810;4.394;2022-10-16T09:16:14;5.88;;;1.52;;
23539;SDS011;11947;50.810;4.394;2022-10-16T09:21:42;9.02;;;1.60;;
23539;SDS011;11947;50.810;4.394;2022-10-16T09:24:12;5.00;;;1.75;;
23539;SDS011;11947;50.810;4.394;2022-10-16T09:26:40;9.65;;;2.40;;
23539;SDS011;11947;50.810;4.394;2022-10-16T09:29:06;5.13;;;1.65;;
23539;SDS011;11947;50.810;4.394;2022-10-16T09:31:36;9.98;;;1.95;;
23539;SDS011;11947;50.810;4.394;2022-10-16T09:34:02;6.32;;;1.67;;
23539;SDS011;11947;50.810;4.394;2022-10-16T09:36:32;7.70;;;1.85;;
23539;SDS011;11947;50.810;4.394;2022-10-16T09:39:11;6.10;;;1.50;;
23539;SDS011;11947;50.810;4.394;2022-10-16T09:41:37;7.30;;;1.55;;
23539;SDS011;11947;50.810;4.394;2022-10-16T09:44:15;11.07;;;1.30;;
23539;SDS011;11947;50.810;4.394;2022-10-16T09:47:00;5.30;;;1.45;;
23539;SDS011;11947;50.810;4.394;2022-10-16T09:49:49;5.80;;;1.67;;
23539;SDS011;11947;50.810;4.394;2022-10-16T09:52:21;10.10;;;1.92;;
23539;SDS011;11947;50.810;4.394;2022-10-16T09:54:57;8.60;;;1.70;;
23539;SDS011;11947;50.810;4.394;2022-10-16T09:57:25;7.10;;;1.77;;
23539;SDS011;11947;50.810;4.394;2022-10-16T09:59:52;7.20;;;1.70;;
23539;SDS011;11947;50.810;4.394;2022-10-16T10:02:52;7.57;;;1.60;;
23539;SDS011;11947;50.810;4.394;2022-10-16T10:05:20;4.93;;;1.48;;
23539;SDS011;11947;50.810;4.394;2022-10-16T10:08:03;5.25;;;1.48;;
23539;SDS011;11947;50.810;4.394;2022-10-16T10:10:36;6.40;;;1.30;;
23539;SDS011;11947;50.810;4.394;2022-10-16T10:13:19;7.07;;;1.52;;
23539;SDS011;11947;50.810;4.394;2022-10-16T10:15:49;5.10;;;1.33;;
23539;SDS011;11947;50.810;4.394;2022-10-16T10:18:19;8.05;;;1.58;;
23539;SDS011;11947;50.810;4.394;2022-10-16T10:20:58;5.72;;;1.50;;
23539;SDS011;11947;50.810;4.394;2022-10-16T10:23:26;5.68;;;1.30;;
23539;SDS011;11947;50.810;4.394;2022-10-16T10:28:46;5.28;;;2.00;;
23539;SDS011;11947;50.810;4.394;2022-10-16T10:31:24;11.38;;;1.70;;
23539;SDS011;11947;50.810;4.394;2022-10-16T10:34:35;8.88;;;1.63;;
23539;SDS011;11947;50.810;4.394;2022-10-16T10:37:02;3.70;;;1.48;;
23539;SDS011;11947;50.810;4.394;2022-10-16T10:39:43;4.22;;;1.42;;
23539;SDS011;11947;50.810;4.394;2022-10-16T10:45:38;6.35;;;1.75;;
23539;SDS011;11947;50.810;4.394;2022-10-16T10:48:24;8.05;;;1.83;;
23539;SDS011;11947;50.810;4.394;2022-10-16T10:56:57;7.85;;;1.50;;
23539;SDS011;11947;50.810;4.394;2022-10-16T10:59:32;5.70;;;1.50;;
23539;SDS011;11947;50.810;4.394;2022-10-16T11:02:26;3.85;;;1.25;;
23539;SDS011;11947;50.810;4.394;2022-10-16T11:07:34;5.13;;;1.25;;
23539;SDS011;11947;50.810;4.394;2022-10-16T11:10:33;4.40;;;1.45;;
23539;SDS011;11947;50.810;4.394;2022-10-16T11:16:14;4.40;;;1.30;;
23539;SDS011;11947;50.810;4.394;2022-10-16T11:18:49;8.18;;;2.25;;
23539;SDS011;11947;50.810;4.394;2022-10-16T11:21:39;4.70;;;1.45;;
23539;SDS011;11947;50.810;4.394;2022-10-16T11:24:20;4.38;;;1.33;;
23539;SDS011;11947;50.810;4.394;2022-10-16T11:26:55;4.50;;;1.48;;
23539;SDS011;11947;50.810;4.394;2022-10-16T11:29:30;4.00;;;1.40;;
23539;SDS011;11947;50.810;4.394;2022-10-16T11:32:05;5.00;;;1.40;;
23539;SDS011;11947;50.810;4.394;2022-10-16T11:34:53;4.05;;;1.38;;
23539;SDS011;11947;50.810;4.394;2022-10-16T11:40:28;5.32;;;1.50;;
23539;SDS011;11947;50.810;4.394;2022-10-16T11:43:22;6.05;;;1.80;;
23539;SDS011;11947;50.810;4.394;2022-10-16T11:45:59;7.35;;;1.30;;
23539;SDS011;11947;50.810;4.394;2022-10-16T11:51:25;4.00;;;1.17;;
23539;SDS011;11947;50.810;4.394;2022-10-16T11:56:29;2.33;;;1.25;;
23539;SDS011;11947;50.810;4.394;2022-10-16T11:59:02;3.17;;;1.38;;
23539;SDS011;11947;50.810;4.394;2022-10-16T12:01:43;4.78;;;1.48;;
23539;SDS011;11947;50.810;4.394;2022-10-16T12:04:25;3.65;;;1.08;;
23539;SDS011;11947;50.810;4.394;2022-10-16T12:07:12;3.85;;;1.30;;
23539;SDS011;11947;50.810;4.394;2022-10-16T12:09:52;2.03;;;1.20;;
23539;SDS011;11947;50.810;4.394;2022-10-16T12:13:00;5.95;;;1.40;;
23539;SDS011;11947;50.810;4.394;2022-10-16T12:15:24;5.32;;;1.30;;
23539;SDS011;11947;50.810;4.394;2022-10-16T12:17:54;3.15;;;1.10;;
23539;SDS011;11947;50.810;4.394;2022-10-16T12:22:53;3.87;;;1.00;;
23539;SDS011;11947;50.810;4.394;2022-10-16T12:28:21;3.83;;;1.20;;
23539;SDS011;11947;50.810;4.394;2022-10-16T12:30:57;2.08;;;1.15;;
23539;SDS011;11947;50.810;4.394;2022-10-16T12:33:26;3.45;;;1.33;;
23539;SDS011;11947;50.810;4.394;2022-10-16T12:35:53;7.60;;;1.50;;
23539;SDS011;11947;50.810;4.394;2022-10-16T12:38:28;5.53;;;1.20;;
23539;SDS011;11947;50.810;4.394;2022-10-16T12:41:24;3.17;;;1.10;;
23539;SDS011;11947;50.810;4.394;2022-10-16T12:43:54;3.83;;;1.10;;
23539;SDS011;11947;50.810;4.394;2022-10-16T12:46:23;4.35;;;1.02;;
23539;SDS011;11947;50.810;4.394;2022-10-16T12:51:38;4.63;;;1.10;;
23539;SDS011;11947;50.810;4.394;2022-10-16T12:54:15;4.80;;;1.15;;
23539;SDS011;11947;50.810;4.394;2022-10-16T13:07:56;4.82;;;1.63;;
23539;SDS011;11947;50.810;4.394;2022-10-16T13:10:28;6.53;;;1.30;;
23539;SDS011;11947;50.810;4.394;2022-10-16T13:21:09;7.20;;;1.65;;
23539;SDS011;11947;50.810;4.394;2022-10-16T13:47:28;7.32;;;1.50;;
23539;SDS011;11947;50.810;4.394;2022-10-16T13:50:11;4.85;;;1.30;;
23539;SDS011;11947;50.810;4.394;2022-10-16T13:52:46;5.20;;;1.55;;
23539;SDS011;11947;50.810;4.394;2022-10-16T13:55:16;5.50;;;1.67;;
23539;SDS011;11947;50.810;4.394;2022-10-16T13:57:44;5.75;;;1.10;;
23539;SDS011;11947;50.810;4.394;2022-10-16T14:00:21;9.85;;;1.27;;
23539;SDS011;11947;50.810;4.394;2022-10-16T14:02:57;3.08;;;1.15;;
23539;SDS011;11947;50.810;4.394;2022-10-16T14:05:30;5.78;;;1.48;;
23539;SDS011;11947;50.810;4.394;2022-10-16T14:08:05;4.82;;;1.42;;
23539;SDS011;11947;50.810;4.394;2022-10-16T14:10:35;3.97;;;1.23;;
23539;SDS011;11947;50.810;4.394;2022-10-16T14:13:07;9.27;;;3.97;;
23539;SDS011;11947;50.810;4.394;2022-10-16T14:15:39;4.07;;;1.85;;
23539;SDS011;11947;50.810;4.394;2022-10-16T14:18:05;4.45;;;1.70;;
23539;SDS011;11947;50.810;4.394;2022-10-16T14:20:31;9.88;;;2.63;;
23539;SDS011;11947;50.810;4.394;2022-10-16T14:25:51;4.00;;;1.17;;
23539;SDS011;11947;50.810;4.394;2022-10-16T14:28:17;4.72;;;1.30;;
23539;SDS011;11947;50.810;4.394;2022-10-16T14:36:12;3.80;;;1.33;;
23539;SDS011;11947;50.810;4.394;2022-10-16T14:38:42;5.70;;;1.60;;
23539;SDS011;11947;50.810;4.394;2022-10-16T14:41:29;5.80;;;1.80;;
23539;SDS011;11947;50.810;4.394;2022-10-16T14:44:03;3.00;;;1.35;;
23539;SDS011;11947;50.810;4.394;2022-10-16T14:46:31;6.93;;;1.58;;
23539;SDS011;11947;50.810;4.394;2022-10-16T14:49:02;7.07;;;1.75;;
23539;SDS011;11947;50.810;4.394;2022-10-16T14:51:40;7.93;;;1.52;;
23539;SDS011;11947;50.810;4.394;2022-10-16T14:54:09;6.25;;;1.60;;
23539;SDS011;11947;50.810;4.394;2022-10-16T14:56:57;5.78;;;1.70;;
23539;SDS011;11947;50.810;4.394;2022-10-16T14:59:26;3.05;;;1.50;;
23539;SDS011;11947;50.810;4.394;2022-10-16T15:01:55;6.53;;;1.60;;
23539;SDS011;11947;50.810;4.394;2022-10-16T15:04:21;8.07;;;1.80;;
23539;SDS011;11947;50.810;4.394;2022-10-16T15:06:47;6.57;;;1.90;;
23539;SDS011;11947;50.810;4.394;2022-10-16T15:09:15;4.78;;;1.80;;
23539;SDS011;11947;50.810;4.394;2022-10-16T15:11:41;8.38;;;2.20;;
23539;SDS011;11947;50.810;4.394;2022-10-16T15:14:11;4.80;;;1.40;;
23539;SDS011;11947;50.810;4.394;2022-10-16T15:16:38;4.93;;;1.52;;
23539;SDS011;11947;50.810;4.394;2022-10-16T15:19:04;10.90;;;2.15;;
23539;SDS011;11947;50.810;4.394;2022-10-16T15:21:32;9.45;;;1.90;;
23539;SDS011;11947;50.810;4.394;2022-10-16T15:23:58;9.98;;;2.30;;
23539;SDS011;11947;50.810;4.394;2022-10-16T15:26:26;8.52;;;1.88;;
23539;SDS011;11947;50.810;4.394;2022-10-16T15:28:55;10.90;;;2.20;;
23539;SDS011;11947;50.810;4.394;2022-10-16T15:31:27;9.35;;;1.85;;
23539;SDS011;11947;50.810;4.394;2022-10-16T15:33:53;8.77;;;3.92;;
23539;SDS011;11947;50.810;4.394;2022-10-16T15:36:29;13.68;;;4.82;;
23539;SDS011;11947;50.810;4.394;2022-10-16T15:39:04;11.82;;;4.68;;
23539;SDS011;11947;50.810;4.394;2022-10-16T15:41:33;12.27;;;4.47;;
23539;SDS011;11947;50.810;4.394;2022-10-16T15:43:59;10.20;;;3.70;;
23539;SDS011;11947;50.810;4.394;2022-10-16T15:46:25;9.82;;;3.83;;
23539;SDS011;11947;50.810;4.394;2022-10-16T15:48:51;13.65;;;3.90;;
23539;SDS011;11947;50.810;4.394;2022-10-16T15:51:28;8.35;;;3.47;;
23539;SDS011;11947;50.810;4.394;2022-10-16T15:53:55;18.65;;;9.30;;
23539;SDS011;11947;50.810;4.394;2022-10-16T15:56:22;12.70;;;7.00;;
23539;SDS011;11947;50.810;4.394;2022-10-16T15:58:50;19.13;;;9.50;;
23539;SDS011;11947;50.810;4.394;2022-10-16T16:01:16;11.60;;;5.63;;
23539;SDS011;11947;50.810;4.394;2022-10-16T16:03:41;11.75;;;5.93;;
23539;SDS011;11947;50.810;4.394;2022-10-16T16:06:08;14.73;;;6.78;;
23539;SDS011;11947;50.810;4.394;2022-10-16T16:08:38;16.27;;;7.28;;
23539;SDS011;11947;50.810;4.394;2022-10-16T16:13:34;11.35;;;6.50;;
23539;SDS011;11947;50.810;4.394;2022-10-16T16:16:04;13.75;;;6.25;;
23539;SDS011;11947;50.810;4.394;2022-10-16T16:18:34;12.93;;;5.43;;
23539;SDS011;11947;50.810;4.394;2022-10-16T16:21:01;19.17;;;7.43;;
23539;SDS011;11947;50.810;4.394;2022-10-16T16:23:26;14.32;;;6.63;;
23539;SDS011;11947;50.810;4.394;2022-10-16T16:26:02;12.73;;;5.47;;
23539;SDS011;11947;50.810;4.394;2022-10-16T16:28:31;11.68;;;6.70;;
23539;SDS011;11947;50.810;4.394;2022-10-16T16:30:57;11.30;;;5.68;;
23539;SDS011;11947;50.810;4.394;2022-10-16T16:33:23;7.43;;;4.03;;
23539;SDS011;11947;50.810;4.394;2022-10-16T16:35:55;15.13;;;6.03;;
23539;SDS011;11947;50.810;4.394;2022-10-16T16:38:22;11.98;;;6.15;;
23539;SDS011;11947;50.810;4.394;2022-10-16T16:40:48;12.27;;;5.85;;
23539;SDS011;11947;50.810;4.394;2022-10-16T16:43:13;17.08;;;7.75;;
23539;SDS011;11947;50.810;4.394;2022-10-16T16:45:39;14.35;;;6.65;;
23539;SDS011;11947;50.810;4.394;2022-10-16T16:48:05;10.88;;;6.72;;
23539;SDS011;11947;50.810;4.394;2022-10-16T16:50:35;11.75;;;5.60;;
23539;SDS011;11947;50.810;4.394;2022-10-16T16:53:03;11.07;;;5.00;;
23539;SDS011;11947;50.810;4.394;2022-10-16T16:55:28;10.55;;;5.18;;
23539;SDS011;11947;50.810;4.394;2022-10-16T16:57:59;17.73;;;7.38;;
23539;SDS011;11947;50.810;4.394;2022-10-16T17:05:30;21.75;;;9.80;;
23539;SDS011;11947;50.810;4.394;2022-10-16T17:07:56;28.08;;;11.45;;
23539;SDS011;11947;50.810;4.394;2022-10-16T17:10:22;16.98;;;9.52;;
23539;SDS011;11947;50.810;4.394;2022-10-16T17:12:49;15.63;;;8.43;;
23539;SDS011;11947;50.810;4.394;2022-10-16T17:15:15;18.63;;;9.10;;